Time;durP1;ratioP1;P1;durP2;ratioP2;P2;SDS_P1;SDS_P2;PMS_P1;PMS_P2;Temp;Humidity;BMP_temperature;BMP_pressure;BME280_temperature;BME280_humidity;BME280_pressure;Samples;Min_cycle;Max_cycle;Signal;HPM_P1;HPM_P2
2023/07/07 00:00:57;;;;;;;2.78;1.30;;;18.80;99.90;;;;;;4165347;28;20037;-59
2023/07/07 00:02:58;;;;;;;1.80;1.27;;;18.80;99.90;;;;;;4172674;28;20575;-59
2023/07/07 00:04:58;;;;;;;2.97;1.27;;;18.70;99.90;;;;;;4174628;28;20040;-59
2023/07/07 00:06:59;;;;;;;2.35;1.10;;;18.70;99.90;;;;;;4174507;28;20091;-59
2023/07/07 00:09:00;;;;;;;3.65;1.40;;;18.70;99.90;;;;;;4174353;28;20045;-58
2023/07/07 00:11:00;;;;;;;2.75;1.58;;;18.70;99.90;;;;;;4173027;28;20022;-59
2023/07/07 00:13:01;;;;;;;2.10;1.17;;;18.70;99.90;;;;;;4176206;28;20108;-59
2023/07/07 00:15:01;;;;;;;3.20;1.60;;;18.60;99.90;;;;;;4172308;28;20033;-59
2023/07/07 00:17:02;;;;;;;3.28;1.60;;;18.60;99.90;;;;;;4172399;28;20045;-59
2023/07/07 00:19:03;;;;;;;3.75;1.52;;;18.60;99.90;;;;;;4173931;28;20447;-58
2023/07/07 00:21:04;;;;;;;3.10;1.48;;;18.50;99.90;;;;;;4173694;28;20032;-59
2023/07/07 00:23:04;;;;;;;1.45;1.30;;;18.50;99.90;;;;;;4174636;28;20105;-58
2023/07/07 00:25:06;;;;;;;3.95;1.27;;;18.40;99.90;;;;;;4174514;28;20033;-61
2023/07/07 00:27:07;;;;;;;1.80;1.20;;;18.30;99.90;;;;;;4173029;28;20400;-59
2023/07/07 00:29:07;;;;;;;2.22;1.38;;;18.30;99.90;;;;;;4171940;28;20036;-58
2023/07/07 00:31:08;;;;;;;1.90;1.20;;;18.30;99.90;;;;;;4175369;28;20056;-58
2023/07/07 00:33:08;;;;;;;4.53;1.77;;;18.30;99.90;;;;;;4171010;28;20037;-58
2023/07/07 00:35:09;;;;;;;3.55;1.60;;;18.30;99.90;;;;;;4169309;28;20028;-61
2023/07/07 00:37:10;;;;;;;1.83;1.55;;;18.30;99.90;;;;;;4170091;28;20044;-59
2023/07/07 00:39:10;;;;;;;2.75;1.58;;;18.30;99.90;;;;;;4169978;28;20037;-58
2023/07/07 00:41:11;;;;;;;2.15;1.20;;;18.30;99.90;;;;;;4173065;28;20531;-59
2023/07/07 00:43:17;;;;;;;2.25;1.38;;;18.30;99.90;;;;;;4175199;28;20411;-59
2023/07/07 00:45:19;;;;;;;1.35;1.20;;;18.30;99.90;;;;;;4172759;28;20040;-58
2023/07/07 00:47:20;;;;;;;2.30;1.50;;;18.30;99.90;;;;;;4171782;28;20025;-58
2023/07/07 00:49:22;;;;;;;2.65;1.23;;;18.30;99.90;;;;;;4172228;28;20035;-64
2023/07/07 00:51:33;;;;;;;1.52;1.30;;;18.30;99.90;;;;;;4173743;28;20029;-59
2023/07/07 00:53:34;;;;;;;1.67;1.27;;;18.30;99.90;;;;;;4173584;28;20056;-59
2023/07/07 00:55:46;;;;;;;1.58;1.10;;;18.20;99.90;;;;;;4172499;28;20033;-58
2023/07/07 00:57:47;;;;;;;1.38;1.13;;;18.20;99.90;;;;;;4168411;28;20512;-58
2023/07/07 00:59:48;;;;;;;2.60;1.55;;;18.10;99.90;;;;;;4173747;28;20391;-59
2023/07/07 01:01:54;;;;;;;2.42;1.30;;;18.10;99.90;;;;;;4171715;28;20121;-59
2023/07/07 01:04:01;;;;;;;1.90;1.10;;;18.00;99.90;;;;;;4167240;28;20115;-58
2023/07/07 01:06:03;;;;;;;1.75;1.20;;;18.00;99.90;;;;;;4173576;28;20375;-58
2023/07/07 01:08:06;;;;;;;2.40;1.40;;;17.90;99.90;;;;;;4176687;28;20025;-59
2023/07/07 01:10:06;;;;;;;3.13;1.60;;;17.90;99.90;;;;;;4175429;28;20481;-63
2023/07/07 01:12:12;;;;;;;3.13;1.60;;;17.90;99.90;;;;;;4177611;28;20029;-58
2023/07/07 01:14:22;;;;;;;1.70;1.30;;;17.90;99.90;;;;;;4170623;28;20041;-58
2023/07/07 01:16:45;;;;;;;2.35;1.40;;;17.90;99.90;;;;;;4173912;28;20025;-58
2023/07/07 01:19:04;;;;;;;3.00;1.40;;;17.90;99.90;;;;;;4172980;28;20499;-58
2023/07/07 01:21:12;;;;;;;2.33;1.40;;;17.90;99.90;;;;;;4160482;28;20048;-58
2023/07/07 01:23:50;;;;;;;2.65;1.30;;;17.90;99.90;;;;;;4160460;28;20106;-58
2023/07/07 01:26:09;;;;;;;4.15;1.60;;;17.90;99.90;;;;;;4158568;28;20033;-58
2023/07/07 01:28:31;;;;;;;1.67;1.27;;;17.90;99.90;;;;;;4163453;28;20032;-59
2023/07/07 01:30:35;;;;;;;2.08;1.50;;;17.90;99.90;;;;;;4175558;28;20033;-59
2023/07/07 01:32:37;;;;;;;2.75;1.20;;;17.90;99.90;;;;;;4176954;28;20071;-58
2023/07/07 01:34:38;;;;;;;1.83;1.38;;;17.90;99.90;;;;;;4177648;28;20527;-62
2023/07/07 01:36:38;;;;;;;1.67;1.42;;;17.80;99.90;;;;;;4171451;28;20484;-59
2023/07/07 01:38:42;;;;;;;1.48;1.20;;;17.80;99.90;;;;;;4173663;28;20116;-58
2023/07/07 01:40:57;;;;;;;2.17;1.23;;;17.80;99.90;;;;;;4172088;28;20033;-59
2023/07/07 01:43:03;;;;;;;1.95;1.10;;;17.80;99.90;;;;;;4163147;28;20038;-58
2023/07/07 01:45:23;;;;;;;1.63;1.40;;;17.70;99.90;;;;;;4172421;28;20503;-59
2023/07/07 01:47:31;;;;;;;2.65;1.45;;;17.70;99.90;;;;;;4171509;28;20090;-59
2023/07/07 01:49:54;;;;;;;2.30;1.35;;;17.70;99.90;;;;;;4175064;28;20048;-58
2023/07/07 01:52:03;;;;;;;2.60;1.42;;;17.70;99.90;;;;;;4159601;28;20484;-58
2023/07/07 01:54:06;;;;;;;2.17;1.40;;;17.70;99.90;;;;;;4167158;28;20029;-59
2023/07/07 01:56:09;;;;;;;1.67;1.25;;;17.70;99.90;;;;;;4174444;28;20032;-58
2023/07/07 01:58:11;;;;;;;2.67;1.50;;;17.60;99.90;;;;;;4172870;28;20036;-59
2023/07/07 02:00:13;;;;;;;;;;;17.60;99.90;;;;;;4176217;28;20061;-59
2023/07/07 02:02:14;;;;;;;2.95;1.70;;;17.60;99.90;;;;;;4175254;28;20455;-58
2023/07/07 02:04:14;;;;;;;3.00;1.55;;;17.60;99.90;;;;;;4172843;28;20021;-59
2023/07/07 02:06:15;;;;;;;1.33;1.13;;;17.60;99.90;;;;;;4175953;28;20044;-58
2023/07/07 02:08:15;;;;;;;1.65;1.50;;;17.50;99.90;;;;;;4175655;28;20125;-58
2023/07/07 02:10:16;;;;;;;2.63;1.90;;;17.50;99.90;;;;;;4174157;28;20030;-59
2023/07/07 02:12:16;;;;;;;2.00;1.30;;;17.40;99.90;;;;;;4175562;28;20476;-58
2023/07/07 02:14:17;;;;;;;1.88;1.42;;;17.40;99.90;;;;;;4176235;28;20116;-58
2023/07/07 02:16:18;;;;;;;2.28;1.42;;;17.40;99.90;;;;;;4163146;28;20032;-58
2023/07/07 02:18:19;;;;;;;2.33;1.50;;;17.30;99.90;;;;;;4174490;28;20119;-58
2023/07/07 02:20:20;;;;;;;3.10;1.57;;;17.30;99.90;;;;;;4170846;28;20329;-59
2023/07/07 02:22:21;;;;;;;1.75;1.27;;;17.30;99.90;;;;;;4176189;28;20442;-58
2023/07/07 02:24:21;;;;;;;2.15;1.45;;;17.30;99.90;;;;;;4175600;28;20041;-59
2023/07/07 02:26:22;;;;;;;4.90;1.38;;;17.30;99.90;;;;;;4175710;28;20102;-58
2023/07/07 02:28:22;;;;;;;2.40;1.40;;;17.30;99.90;;;;;;4167076;28;20029;-58
2023/07/07 02:30:23;;;;;;;4.00;1.45;;;17.30;99.90;;;;;;4175150;28;20033;-59
2023/07/07 02:32:25;;;;;;;2.50;1.33;;;17.20;99.90;;;;;;4172016;28;20079;-58
2023/07/07 02:34:26;;;;;;;3.85;1.70;;;17.30;99.90;;;;;;4175847;28;20041;-58
2023/07/07 02:36:27;;;;;;;2.08;1.40;;;17.20;99.90;;;;;;4175488;28;20507;-59
2023/07/07 02:38:28;;;;;;;2.70;1.60;;;17.20;99.90;;;;;;4172786;28;20746;-58
2023/07/07 02:40:29;;;;;;;3.28;1.77;;;17.20;99.90;;;;;;4174708;28;20041;-59
2023/07/07 02:42:30;;;;;;;5.65;1.92;;;17.20;99.90;;;;;;4158649;28;20048;-58
2023/07/07 02:44:30;;;;;;;4.50;1.65;;;17.20;99.90;;;;;;4175363;28;20049;-58
2023/07/07 02:46:31;;;;;;;1.98;1.42;;;17.20;99.90;;;;;;4174723;28;20025;-59
2023/07/07 02:48:32;;;;;;;1.98;1.50;;;17.20;99.90;;;;;;4175170;28;20061;-58
2023/07/07 02:50:32;;;;;;;3.22;1.77;;;17.10;99.90;;;;;;4165888;28;20025;-59
2023/07/07 02:52:33;;;;;;;2.55;1.38;;;17.10;99.90;;;;;;4158441;28;20037;-58
2023/07/07 02:54:34;;;;;;;1.98;1.40;;;17.10;99.90;;;;;;4159164;28;20044;-58
2023/07/07 02:56:35;;;;;;;2.58;1.60;;;17.10;99.90;;;;;;4158503;28;20082;-58
2023/07/07 02:58:35;;;;;;;4.88;1.70;;;17.10;99.90;;;;;;4157832;28;20124;-58
2023/07/07 03:00:36;;;;;;;2.60;1.48;;;17.10;99.90;;;;;;4155412;28;20029;-59
2023/07/07 03:02:36;;;;;;;3.25;1.50;;;17.10;99.90;;;;;;4157961;28;20033;-58
2023/07/07 03:04:37;;;;;;;3.60;1.40;;;17.10;99.90;;;;;;4160506;28;20079;-58
2023/07/07 03:06:38;;;;;;;2.47;1.83;;;17.00;99.90;;;;;;4154411;28;20053;-58
2023/07/07 03:08:39;;;;;;;3.90;1.83;;;17.00;99.90;;;;;;4171852;28;20495;-59
2023/07/07 03:10:41;;;;;;;3.42;1.98;;;17.00;99.90;;;;;;4174581;28;20064;-58
2023/07/07 03:12:41;;;;;;;3.10;1.80;;;17.00;99.90;;;;;;4168395;28;20037;-59
2023/07/07 03:14:42;;;;;;;3.60;1.70;;;16.90;99.90;;;;;;4157956;28;20417;-59
2023/07/07 03:16:47;;;;;;;3.40;1.80;;;16.90;99.90;;;;;;4167718;28;20049;-59
2023/07/07 03:18:51;;;;;;;2.80;1.85;;;16.90;99.90;;;;;;4172990;28;20036;-58
2023/07/07 03:20:52;;;;;;;5.30;1.55;;;16.90;99.90;;;;;;4166280;28;20052;-58
2023/07/07 03:22:52;;;;;;;4.18;1.52;;;16.90;99.90;;;;;;4166154;28;20045;-58
2023/07/07 03:24:53;;;;;;;2.08;1.55;;;16.90;99.90;;;;;;4173703;28;20040;-60
2023/07/07 03:26:53;;;;;;;2.88;1.45;;;16.80;99.90;;;;;;4165286;28;20045;-59
2023/07/07 03:28:55;;;;;;;1.95;1.52;;;16.80;99.90;;;;;;4170365;28;20033;-59
2023/07/07 03:30:55;;;;;;;2.78;1.67;;;16.80;99.90;;;;;;4171733;28;20042;-58
2023/07/07 03:32:56;;;;;;;3.35;1.40;;;16.70;99.90;;;;;;4169519;28;20397;-58
2023/07/07 03:34:57;;;;;;;4.05;1.67;;;16.80;99.90;;;;;;4177489;28;20468;-58
2023/07/07 03:36:57;;;;;;;5.47;1.52;;;16.80;99.90;;;;;;4155946;28;20034;-58
2023/07/07 03:38:58;;;;;;;2.28;1.60;;;16.70;99.90;;;;;;4178689;28;20086;-59
2023/07/07 03:40:59;;;;;;;3.70;1.65;;;16.70;99.90;;;;;;4169295;28;20040;-58
2023/07/07 03:42:59;;;;;;;2.13;1.40;;;16.80;99.90;;;;;;4175724;28;20044;-58
2023/07/07 03:45:00;;;;;;;2.42;1.40;;;16.80;99.90;;;;;;4181258;28;20029;-58
2023/07/07 03:47:01;;;;;;;2.58;1.77;;;16.70;99.90;;;;;;4177151;28;20039;-58
2023/07/07 03:49:01;;;;;;;2.60;1.48;;;16.80;99.90;;;;;;4178195;28;20039;-58
2023/07/07 03:51:03;;;;;;;1.88;1.40;;;16.80;99.90;;;;;;4179571;28;20476;-58
2023/07/07 03:53:04;;;;;;;2.50;1.47;;;16.80;99.90;;;;;;4181896;28;20029;-58
2023/07/07 03:55:05;;;;;;;2.70;1.65;;;16.80;99.90;;;;;;4181103;28;20136;-59
2023/07/07 03:57:07;;;;;;;1.85;1.42;;;16.80;99.90;;;;;;4185468;28;20029;-58
2023/07/07 03:59:07;;;;;;;3.40;1.95;;;16.80;99.90;;;;;;4179584;28;20048;-58
2023/07/07 04:01:10;;;;;;;2.72;1.65;;;16.80;99.90;;;;;;4176249;28;20038;-59
2023/07/07 04:03:11;;;;;;;2.88;1.88;;;16.80;99.90;;;;;;4180782;28;20040;-59
2023/07/07 04:05:11;;;;;;;3.25;1.85;;;16.80;99.90;;;;;;4181503;28;20032;-59
2023/07/07 04:07:12;;;;;;;2.67;1.60;;;16.80;99.90;;;;;;4171634;28;20033;-59
2023/07/07 04:09:12;;;;;;;3.15;1.58;;;16.70;99.90;;;;;;4178426;28;20041;-58
2023/07/07 04:11:16;;;;;;;3.10;1.48;;;16.70;99.90;;;;;;4176986;28;20044;-59
2023/07/07 04:13:17;;;;;;;3.80;1.52;;;16.70;99.90;;;;;;4174438;28;20041;-59
2023/07/07 04:15:17;;;;;;;4.40;1.63;;;16.70;99.90;;;;;;4179387;28;20021;-58
2023/07/07 04:17:18;;;;;;;2.28;1.73;;;16.70;99.90;;;;;;4179423;28;20094;-59
2023/07/07 04:19:18;;;;;;;4.53;1.90;;;16.70;99.90;;;;;;4179726;28;20111;-58
2023/07/07 04:21:22;;;;;;;2.95;1.88;;;16.70;99.90;;;;;;4174662;28;20033;-58
2023/07/07 04:23:22;;;;;;;2.95;1.90;;;16.70;99.90;;;;;;4177591;28;20033;-58
2023/07/07 04:25:23;;;;;;;3.85;1.80;;;16.70;99.90;;;;;;4182300;28;20036;-58
2023/07/07 04:27:24;;;;;;;3.47;1.88;;;16.70;99.90;;;;;;4182042;28;20033;-58
2023/07/07 04:29:24;;;;;;;3.28;1.95;;;16.70;99.90;;;;;;4179350;28;20427;-60
2023/07/07 04:31:28;;;;;;;3.42;1.70;;;16.70;99.90;;;;;;4159539;28;20048;-59
2023/07/07 04:33:30;;;;;;;4.13;2.17;;;16.70;99.90;;;;;;4177220;28;20124;-58
2023/07/07 04:35:35;;;;;;;3.78;1.60;;;16.70;99.90;;;;;;4175815;28;20558;-58
2023/07/07 04:37:36;;;;;;;3.65;1.85;;;16.70;99.90;;;;;;4171483;28;20033;-58
2023/07/07 04:39:36;;;;;;;3.55;2.00;;;16.80;99.90;;;;;;4181823;28;20437;-61
2023/07/07 04:41:37;;;;;;;3.88;2.10;;;16.80;99.90;;;;;;4187240;28;20395;-60
2023/07/07 04:43:40;;;;;;;3.90;2.20;;;16.80;99.90;;;;;;4184852;28;20037;-60
2023/07/07 04:45:43;;;;;;;4.97;2.15;;;16.80;99.90;;;;;;4178643;28;20049;-61
2023/07/07 04:47:43;;;;;;;4.70;2.05;;;16.90;99.90;;;;;;4186378;28;20408;-60
2023/07/07 04:49:44;;;;;;;6.32;1.80;;;16.90;99.90;;;;;;4183138;28;20072;-60
2023/07/07 04:51:44;;;;;;;4.53;2.00;;;16.90;99.90;;;;;;4177591;28;20092;-60
2023/07/07 04:53:46;;;;;;;3.67;1.98;;;16.90;99.90;;;;;;4185726;28;20073;-60
2023/07/07 04:55:46;;;;;;;5.65;2.17;;;17.00;99.90;;;;;;4192534;28;20035;-60
2023/07/07 04:57:47;;;;;;;6.40;2.20;;;17.00;99.90;;;;;;4180167;28;20033;-60
2023/07/07 04:59:48;;;;;;;5.53;1.90;;;17.00;99.90;;;;;;4180170;28;20037;-59
2023/07/07 05:01:48;;;;;;;4.93;2.00;;;17.00;99.90;;;;;;4179648;28;20040;-59
2023/07/07 05:03:52;;;;;;;3.75;2.00;;;17.00;99.90;;;;;;4185026;28;20029;-60
2023/07/07 05:05:52;;;;;;;4.05;2.10;;;17.00;99.90;;;;;;4186169;28;20074;-60
2023/07/07 05:07:53;;;;;;;6.38;2.13;;;17.00;99.90;;;;;;4184742;28;20395;-60
2023/07/07 05:09:54;;;;;;;6.25;2.13;;;17.00;99.90;;;;;;4183494;28;20609;-59
2023/07/07 05:11:55;;;;;;;5.82;1.95;;;17.10;99.90;;;;;;4179306;28;20029;-60
2023/07/07 05:13:56;;;;;;;3.63;1.83;;;17.10;99.90;;;;;;4189723;28;20090;-60
2023/07/07 05:16:04;;;;;;;4.43;2.05;;;17.10;99.90;;;;;;4183386;28;20067;-60
2023/07/07 05:18:05;;;;;;;5.30;2.17;;;17.10;99.90;;;;;;4186042;28;20047;-60
2023/07/07 05:20:06;;;;;;;3.88;2.17;;;17.20;99.90;;;;;;4182939;28;20057;-60
2023/07/07 05:22:07;;;;;;;5.68;2.63;;;17.20;99.90;;;;;;4174217;28;20120;-59
2023/07/07 05:24:08;;;;;;;4.95;2.83;;;17.20;99.90;;;;;;4180465;28;20033;-60
2023/07/07 05:26:09;;;;;;;6.60;2.97;;;17.20;99.90;;;;;;4178476;28;20102;-60
2023/07/07 05:28:09;;;;;;;3.65;2.58;;;17.20;99.90;;;;;;4183648;28;20033;-59
2023/07/07 05:30:10;;;;;;;4.55;2.72;;;17.30;99.90;;;;;;4179689;28;20104;-60
2023/07/07 05:32:11;;;;;;;4.90;2.83;;;17.30;99.90;;;;;;4170293;28;20036;-61
2023/07/07 05:34:12;;;;;;;8.55;3.13;;;17.30;99.90;;;;;;4171004;28;20059;-60
2023/07/07 05:36:12;;;;;;;4.18;2.50;;;17.40;99.90;;;;;;4175169;28;20511;-60
2023/07/07 05:38:14;;;;;;;5.05;2.72;;;17.40;99.90;;;;;;4173452;28;20067;-60
2023/07/07 05:40:15;;;;;;;4.57;2.90;;;17.50;99.90;;;;;;4178025;28;20064;-60
2023/07/07 05:42:15;;;;;;;5.13;2.47;;;17.50;99.90;;;;;;4181501;28;20044;-60
2023/07/07 05:44:16;;;;;;;4.78;2.60;;;17.60;99.90;;;;;;4183589;28;20168;-60
2023/07/07 05:46:17;;;;;;;3.85;2.75;;;17.70;99.90;;;;;;4179975;28;20052;-60
2023/07/07 05:48:17;;;;;;;4.45;3.03;;;17.80;99.90;;;;;;4181560;28;20424;-60
2023/07/07 05:50:18;;;;;;;5.47;2.80;;;17.80;99.90;;;;;;4185048;28;20029;-60
2023/07/07 05:52:18;;;;;;;5.65;2.90;;;17.90;99.90;;;;;;4175916;28;20033;-60
2023/07/07 05:54:21;;;;;;;5.28;2.83;;;18.00;99.90;;;;;;4186750;28;20027;-60
2023/07/07 05:56:24;;;;;;;5.03;2.95;;;18.20;99.90;;;;;;4157841;28;20417;-60
2023/07/07 05:58:24;;;;;;;7.43;3.40;;;18.50;99.90;;;;;;4174850;28;20379;-60
2023/07/07 06:00:27;;;;;;;7.72;3.47;;;18.90;99.90;;;;;;4182581;28;20068;-60
2023/07/07 06:02:27;;;;;;;4.43;2.70;;;19.40;99.90;;;;;;4173794;28;20036;-64
2023/07/07 06:04:28;;;;;;;4.47;2.90;;;19.80;99.90;;;;;;4181907;28;20102;-61
2023/07/07 06:06:28;;;;;;;4.78;2.53;;;20.30;99.90;;;;;;4176993;28;20024;-61
2023/07/07 06:08:29;;;;;;;5.65;3.10;;;20.80;99.90;;;;;;4183375;28;20060;-61
2023/07/07 06:10:30;;;;;;;4.38;2.63;;;21.30;99.90;;;;;;4182554;28;20503;-61
2023/07/07 06:12:34;;;;;;;4.55;2.33;;;21.70;99.90;;;;;;4170032;28;20234;-61
2023/07/07 06:14:35;;;;;;;8.10;2.97;;;22.10;99.90;;;;;;4170400;28;20032;-61
2023/07/07 06:16:35;;;;;;;6.63;3.05;;;22.50;99.90;;;;;;4182042;28;20021;-61
2023/07/07 06:18:36;;;;;;;4.85;2.60;;;22.90;99.90;;;;;;4179636;28;20161;-61
2023/07/07 06:20:37;;;;;;;4.28;2.83;;;23.30;99.80;;;;;;4182840;28;20044;-61
2023/07/07 06:22:37;;;;;;;4.90;2.72;;;23.70;99.70;;;;;;4185949;28;20530;-61
2023/07/07 06:24:38;;;;;;;5.07;2.88;;;24.00;98.50;;;;;;4182996;28;20118;-61
2023/07/07 06:26:38;;;;;;;3.10;2.33;;;24.20;98.40;;;;;;4180655;28;20029;-61
2023/07/07 06:28:39;;;;;;;3.78;2.45;;;24.50;98.20;;;;;;4180934;28;20490;-62
2023/07/07 06:30:39;;;;;;;4.72;2.58;;;24.80;97.50;;;;;;4171552;28;20025;-61
2023/07/07 06:32:40;;;;;;;3.13;2.00;;;25.10;97.50;;;;;;4173664;28;20036;-61
2023/07/07 06:34:41;;;;;;;5.22;2.35;;;25.40;96.30;;;;;;4180973;28;20120;-62
2023/07/07 06:36:41;;;;;;;4.85;2.60;;;25.50;96.00;;;;;;4178534;28;20063;-62
2023/07/07 06:38:43;;;;;;;4.90;2.40;;;25.60;95.60;;;;;;4177242;28;20071;-63
2023/07/07 06:40:46;;;;;;;3.20;2.10;;;25.70;95.80;;;;;;4166280;28;20045;-62
2023/07/07 06:42:48;;;;;;;5.03;2.40;;;25.70;93.90;;;;;;4185344;28;20048;-62
2023/07/07 06:44:48;;;;;;;4.78;1.85;;;25.80;94.70;;;;;;4183115;28;20476;-62
2023/07/07 06:46:49;;;;;;;3.47;1.98;;;25.90;94.00;;;;;;4175539;28;20029;-62
2023/07/07 06:48:49;;;;;;;3.67;2.28;;;26.00;93.40;;;;;;4178725;28;20053;-62
2023/07/07 06:50:50;;;;;;;9.45;2.33;;;25.90;93.10;;;;;;4178808;28;20036;-62
2023/07/07 06:52:51;;;;;;;4.68;2.45;;;25.80;93.00;;;;;;4178652;28;20476;-62
2023/07/07 06:54:52;;;;;;;5.55;2.35;;;25.80;92.60;;;;;;4178783;28;20040;-62
2023/07/07 06:56:53;;;;;;;4.97;2.17;;;25.70;92.70;;;;;;4185545;28;20053;-62
2023/07/07 06:58:53;;;;;;;6.70;2.35;;;25.70;93.10;;;;;;4181097;28;20037;-62
2023/07/07 07:00:54;;;;;;;4.25;2.13;;;25.60;92.20;;;;;;4175074;28;20094;-62
2023/07/07 07:02:55;;;;;;;5.22;2.25;;;25.60;92.90;;;;;;4183155;28;20108;-62
2023/07/07 07:04:55;;;;;;;3.47;1.83;;;25.50;91.30;;;;;;4181880;28;20026;-62
2023/07/07 07:06:56;;;;;;;4.45;2.08;;;25.40;90.70;;;;;;4180346;28;20063;-62
2023/07/07 07:08:56;;;;;;;2.75;1.65;;;25.40;90.70;;;;;;4179718;28;20033;-62
2023/07/07 07:10:57;;;;;;;2.92;1.70;;;25.20;88.50;;;;;;4178716;28;20032;-62
2023/07/07 07:12:57;;;;;;;3.22;1.85;;;25.20;88.90;;;;;;4176930;28;20025;-68
2023/07/07 07:14:58;;;;;;;3.15;1.63;;;25.20;90.80;;;;;;4182274;28;20036;-63
2023/07/07 07:16:58;;;;;;;2.67;1.80;;;25.20;91.60;;;;;;4183960;28;20394;-63
2023/07/07 07:18:59;;;;;;;3.53;1.90;;;25.20;88.60;;;;;;4180266;28;20055;-65
2023/07/07 07:21:00;;;;;;;2.15;1.48;;;25.10;89.10;;;;;;4182651;28;20036;-63
2023/07/07 07:23:00;;;;;;;4.72;1.88;;;25.10;90.20;;;;;;4183712;28;20025;-62
2023/07/07 07:25:01;;;;;;;5.18;2.00;;;25.10;90.40;;;;;;4185006;28;20111;-62
2023/07/07 07:27:01;;;;;;;3.72;1.60;;;25.20;91.00;;;;;;4179638;28;20439;-61
2023/07/07 07:29:02;;;;;;;5.28;2.15;;;25.10;90.20;;;;;;4182403;28;20492;-62
2023/07/07 07:31:03;;;;;;;4.00;2.20;;;25.10;90.80;;;;;;4180779;28;20032;-63
2023/07/07 07:33:06;;;;;;;4.93;2.35;;;25.20;90.50;;;;;;4183250;28;20480;-62
2023/07/07 07:35:10;;;;;;;2.25;1.60;;;25.20;88.90;;;;;;4179386;28;20037;-63
2023/07/07 07:37:10;;;;;;;3.90;1.90;;;25.10;90.80;;;;;;4187603;28;20059;-62
2023/07/07 07:39:11;;;;;;;4.07;1.95;;;25.20;91.30;;;;;;4182841;28;20033;-62
2023/07/07 07:41:12;;;;;;;3.83;1.80;;;25.30;91.20;;;;;;4179938;28;20036;-62
2023/07/07 07:43:12;;;;;;;4.32;1.80;;;25.40;90.90;;;;;;4177723;28;20025;-62
2023/07/07 07:45:18;;;;;;;4.10;2.03;;;25.40;89.80;;;;;;4168954;28;20041;-62
2023/07/07 07:47:19;;;;;;;3.38;1.70;;;25.40;90.40;;;;;;4179817;28;20494;-62
2023/07/07 07:49:20;;;;;;;3.70;1.53;;;25.40;90.10;;;;;;4160013;28;20044;-62
2023/07/07 07:51:21;;;;;;;3.13;1.60;;;25.50;90.20;;;;;;4183176;28;20260;-61
2023/07/07 07:53:22;;;;;;;2.83;1.70;;;25.50;88.90;;;;;;4191758;28;20093;-62
2023/07/07 07:55:23;;;;;;;2.00;1.52;;;25.50;89.50;;;;;;4186306;28;20040;-61
2023/07/07 07:57:23;;;;;;;2.13;1.52;;;25.60;90.40;;;;;;4177444;28;20037;-62
2023/07/07 07:59:24;;;;;;;2.20;1.60;;;25.60;88.70;;;;;;4178563;28;20497;-62
2023/07/07 08:01:25;;;;;;;1.45;1.20;;;25.70;88.60;;;;;;4177382;28;20037;-62
2023/07/07 08:03:26;;;;;;;2.38;1.67;;;25.70;90.60;;;;;;4178141;28;20504;-62
2023/07/07 08:05:26;;;;;;;2.85;1.73;;;25.80;88.50;;;;;;4178133;28;20036;-61
2023/07/07 08:07:27;;;;;;;4.00;1.42;;;25.80;90.60;;;;;;4184005;28;20098;-62
2023/07/07 08:09:27;;;;;;;2.90;1.35;;;25.80;87.10;;;;;;4181881;28;20036;-62
2023/07/07 08:11:40;;;;;;;3.67;1.35;;;25.90;87.20;;;;;;4180659;28;20040;-61
2023/07/07 08:13:41;;;;;;;1.92;1.23;;;26.00;88.50;;;;;;4181058;28;20041;-62
2023/07/07 08:15:41;;;;;;;4.97;1.60;;;26.00;88.80;;;;;;4175938;28;20036;-62
2023/07/07 08:17:42;;;;;;;1.58;1.20;;;26.00;85.20;;;;;;4172303;28;20124;-61
2023/07/07 08:19:46;;;;;;;2.30;1.50;;;26.10;83.30;;;;;;4176733;28;20033;-62
2023/07/07 08:21:47;;;;;;;1.95;1.30;;;26.00;82.70;;;;;;4186033;28;20075;-62
2023/07/07 08:23:48;;;;;;;3.50;1.40;;;26.00;83.20;;;;;;4178090;28;20040;-62
2023/07/07 08:25:51;;;;;;;3.20;1.48;;;26.20;85.50;;;;;;4168603;28;20067;-62
2023/07/07 08:27:53;;;;;;;3.58;1.30;;;26.20;83.60;;;;;;4157136;28;20092;-62
2023/07/07 08:29:54;;;;;;;2.83;1.40;;;26.20;84.30;;;;;;4179042;28;20037;-62
2023/07/07 08:31:55;;;;;;;5.20;1.60;;;26.30;82.40;;;;;;4173688;28;20094;-62
2023/07/07 08:33:55;;;;;;;1.98;1.50;;;26.30;80.70;;;;;;4182666;28;20387;-62
2023/07/07 08:35:56;;;;;;;2.00;1.25;;;26.30;79.70;;;;;;4186427;28;20044;-61
2023/07/07 08:37:56;;;;;;;2.28;1.30;;;26.40;80.20;;;;;;4186586;28;20033;-62
2023/07/07 08:39:57;;;;;;;4.13;1.63;;;26.30;79.60;;;;;;4183436;28;20495;-62
2023/07/07 08:42:02;;;;;;;2.05;1.55;;;26.20;78.40;;;;;;4178675;28;20048;-62
2023/07/07 08:44:04;;;;;;;1.70;1.20;;;26.30;78.60;;;;;;4190033;28;20024;-63
2023/07/07 08:46:36;;;;;;;3.08;1.20;;;26.40;81.70;;;;;;4179163;28;20131;-62
2023/07/07 08:48:56;;;;;;;2.92;1.20;;;26.30;80.30;;;;;;4182088;28;20029;-62
2023/07/07 08:51:03;;;;;;;1.70;1.27;;;26.40;79.80;;;;;;4187351;28;20026;-62
2023/07/07 08:53:30;;;;;;;1.35;1.10;;;26.50;79.50;;;;;;4187589;28;20107;-62
2023/07/07 08:55:43;;;;;;;2.45;1.60;;;26.50;83.90;;;;;;4163765;28;20046;-62
2023/07/07 08:57:57;;;;;;;1.90;1.30;;;26.60;80.30;;;;;;4173690;28;20108;-64
2023/07/07 09:00:22;;;;;;;1.20;1.08;;;26.60;78.40;;;;;;4181821;28;20029;-62
2023/07/07 09:02:37;;;;;;;2.50;1.10;;;26.70;78.00;;;;;;4182273;28;20051;-62
2023/07/07 09:05:29;;;;;;;1.88;1.17;;;26.70;78.30;;;;;;4182618;28;20059;-62
2023/07/07 09:07:57;;;;;;;2.50;1.30;;;26.80;79.20;;;;;;4157250;28;20052;-62
2023/07/07 09:10:20;;;;;;;2.03;1.27;;;26.90;78.00;;;;;;4179335;28;20037;-62
2023/07/07 09:12:41;;;;;;;3.08;1.70;;;27.00;75.30;;;;;;4185594;28;20025;-62
2023/07/07 09:14:45;;;;;;;1.98;1.10;;;27.00;76.30;;;;;;4175712;28;20562;-62
2023/07/07 09:16:47;;;;;;;1.95;1.13;;;27.10;75.30;;;;;;4181848;28;20044;-62
2023/07/07 09:18:52;;;;;;;1.45;1.20;;;27.10;75.10;;;;;;4159752;28;20033;-62
2023/07/07 09:20:56;;;;;;;1.48;1.05;;;27.20;76.70;;;;;;4181646;28;20084;-62
2023/07/07 09:23:03;;;;;;;1.90;1.33;;;27.20;75.60;;;;;;4186237;28;20153;-62
2023/07/07 09:25:19;;;;;;;4.90;1.63;;;27.30;72.20;;;;;;4180798;28;20021;-63
2023/07/07 09:27:27;;;;;;;3.22;1.73;;;27.30;73.50;;;;;;4178339;28;20503;-62
2023/07/07 09:29:30;;;;;;;1.52;1.20;;;27.40;73.70;;;;;;4180684;28;20053;-62
2023/07/07 09:31:42;;;;;;;1.80;1.20;;;27.40;74.00;;;;;;4180426;28;20108;-62
2023/07/07 09:33:43;;;;;;;2.28;1.20;;;27.50;74.20;;;;;;4177079;28;20037;-62
2023/07/07 09:36:12;;;;;;;1.35;1.10;;;27.50;70.50;;;;;;4179863;28;20033;-62
2023/07/07 09:38:33;;;;;;;1.30;1.20;;;27.60;72.50;;;;;;4175223;28;20057;-63
2023/07/07 09:40:55;;;;;;;1.67;1.08;;;27.60;69.70;;;;;;4131019;28;20144;-62
2023/07/07 09:43:18;;;;;;;2.35;1.38;;;27.60;69.50;;;;;;4174455;28;22230;-62
2023/07/07 09:45:22;;;;;;;1.83;1.27;;;27.60;65.90;;;;;;4183843;28;20033;-63
2023/07/07 09:47:33;;;;;;;2.17;1.10;;;27.60;65.70;;;;;;4175036;28;20392;-62
2023/07/07 09:49:49;;;;;;;2.88;1.40;;;27.70;67.90;;;;;;4178483;28;20032;-63
2023/07/07 09:52:09;;;;;;;5.75;1.63;;;27.70;65.20;;;;;;4165281;28;20040;-62
2023/07/07 09:54:13;;;;;;;1.95;1.40;;;27.70;67.00;;;;;;4179325;28;20122;-62
2023/07/07 09:56:23;;;;;;;3.00;1.60;;;27.70;65.20;;;;;;4173321;28;20052;-62
2023/07/07 09:58:39;;;;;;;4.18;1.40;;;27.70;64.50;;;;;;4176925;28;20421;-62
2023/07/07 10:00:42;;;;;;;1.33;1.23;;;27.60;64.70;;;;;;4173485;28;20041;-63
2023/07/07 10:02:45;;;;;;;2.00;1.30;;;27.70;64.90;;;;;;4178667;28;20429;-62
2023/07/07 10:04:52;;;;;;;2.63;1.40;;;27.80;65.10;;;;;;4177077;28;20027;-62
2023/07/07 10:06:57;;;;;;;1.30;1.17;;;27.80;65.40;;;;;;4185126;28;20024;-63
2023/07/07 10:08:58;;;;;;;1.75;1.38;;;27.90;65.50;;;;;;4182621;28;20032;-62
2023/07/07 10:11:25;;;;;;;1.55;1.30;;;27.90;65.60;;;;;;4179770;28;20108;-62
2023/07/07 10:13:26;;;;;;;2.42;1.33;;;28.00;67.20;;;;;;4179475;28;20029;-62
2023/07/07 10:15:47;;;;;;;2.75;1.73;;;28.10;64.60;;;;;;4173635;28;20036;-62
2023/07/07 10:17:59;;;;;;;2.22;1.38;;;28.00;63.70;;;;;;4173048;28;20142;-62
2023/07/07 10:20:00;;;;;;;;;;;28.00;64.00;;;;;;4183677;28;20564;-62
2023/07/07 10:22:01;;;;;;;2.35;1.63;;;28.00;63.20;;;;;;4162604;28;19954;-61
2023/07/07 10:24:02;;;;;;;3.53;1.52;;;28.10;63.60;;;;;;4185412;28;20029;-62
2023/07/07 10:26:03;;;;;;;1.65;1.40;;;28.00;62.20;;;;;;4172770;28;20041;-62
2023/07/07 10:28:04;;;;;;;5.57;1.65;;;28.00;63.00;;;;;;4175757;28;20033;-62
2023/07/07 10:30:05;;;;;;;2.03;1.30;;;27.90;62.90;;;;;;4180657;28;20114;-63
2023/07/07 10:32:31;;;;;;;2.85;1.50;;;28.00;61.10;;;;;;4177694;28;20049;-62
2023/07/07 10:34:42;;;;;;;2.28;1.50;;;28.00;63.20;;;;;;4179798;28;20415;-62
2023/07/07 10:36:43;;;;;;;3.17;1.75;;;28.10;64.00;;;;;;4178690;28;20032;-63
2023/07/07 10:38:45;;;;;;;3.60;1.85;;;28.10;63.30;;;;;;4177838;28;20037;-63
2023/07/07 10:40:48;;;;;;;1.92;1.40;;;28.10;60.00;;;;;;4181196;28;20460;-64
2023/07/07 10:42:52;;;;;;;2.60;1.70;;;28.10;59.90;;;;;;4173633;28;20051;-63
2023/07/07 10:44:54;;;;;;;2.17;1.60;;;28.20;61.50;;;;;;4179445;28;20458;-62